sensor_id;sensor_type;location;lat;lon;timestamp;pressure;altitude;pressure_sealevel;temperature;humidity
5609;BME280;2826;51.354;9.588;2023-07-31T00:02:17;97772.13;;;18.66;72.63
5609;BME280;2826;51.354;9.588;2023-07-31T00:04:43;97770.09;;;18.58;72.98
5609;BME280;2826;51.354;9.588;2023-07-31T00:07:10;97762.00;;;18.61;73.22
5609;BME280;2826;51.354;9.588;2023-07-31T00:09:36;97758.41;;;18.62;72.79
5609;BME280;2826;51.354;9.588;2023-07-31T00:12:04;97763.66;;;18.62;73.13
5609;BME280;2826;51.354;9.588;2023-07-31T00:14:32;97762.94;;;18.60;73.46
5609;BME280;2826;51.354;9.588;2023-07-31T00:16:58;97757.78;;;18.59;73.28
5609;BME280;2826;51.354;9.588;2023-07-31T00:19:25;97749.81;;;18.60;73.55
5609;BME280;2826;51.354;9.588;2023-07-31T00:21:52;97753.97;;;18.63;73.43
5609;BME280;2826;51.354;9.588;2023-07-31T00:24:18;97749.69;;;18.62;73.55
5609;BME280;2826;51.354;9.588;2023-07-31T00:26:45;97745.50;;;18.59;73.63
5609;BME280;2826;51.354;9.588;2023-07-31T00:29:12;97752.94;;;18.54;73.87
5609;BME280;2826;51.354;9.588;2023-07-31T00:31:39;97747.78;;;18.52;73.84
5609;BME280;2826;51.354;9.588;2023-07-31T00:34:06;97742.06;;;18.47;74.17
5609;BME280;2826;51.354;9.588;2023-07-31T00:36:34;97741.13;;;18.48;74.35
5609;BME280;2826;51.354;9.588;2023-07-31T00:39:01;97727.28;;;18.35;74.75
5609;BME280;2826;51.354;9.588;2023-07-31T00:41:28;97738.59;;;18.47;74.23
5609;BME280;2826;51.354;9.588;2023-07-31T00:43:54;97731.06;;;18.53;73.93
5609;BME280;2826;51.354;9.588;2023-07-31T00:46:21;97727.88;;;18.50;74.82
5609;BME280;2826;51.354;9.588;2023-07-31T00:48:49;97722.84;;;18.47;75.18
5609;BME280;2826;51.354;9.588;2023-07-31T00:51:17;97721.91;;;18.48;75.21
5609;BME280;2826;51.354;9.588;2023-07-31T00:53:43;97722.03;;;18.46;74.93
5609;BME280;2826;51.354;9.588;2023-07-31T00:56:10;97718.34;;;18.49;75.13
5609;BME280;2826;51.354;9.588;2023-07-31T00:58:38;97708.66;;;18.49;75.03
5609;BME280;2826;51.354;9.588;2023-07-31T01:01:04;97700.53;;;18.52;74.72
5609;BME280;2826;51.354;9.588;2023-07-31T01:03:30;97700.31;;;18.44;74.86
5609;BME280;2826;51.354;9.588;2023-07-31T01:06:08;97693.50;;;18.53;74.32
5609;BME280;2826;51.354;9.588;2023-07-31T01:08:41;97704.94;;;18.52;74.12
5609;BME280;2826;51.354;9.588;2023-07-31T01:11:15;97689.81;;;18.44;74.12
5609;BME280;2826;51.354;9.588;2023-07-31T01:13:43;97692.66;;;18.52;74.22
5609;BME280;2826;51.354;9.588;2023-07-31T01:16:10;97690.75;;;18.54;73.63
5609;BME280;2826;51.354;9.588;2023-07-31T01:18:37;97681.31;;;18.52;73.66
5609;BME280;2826;51.354;9.588;2023-07-31T01:21:16;97690.50;;;18.58;73.38
5609;BME280;2826;51.354;9.588;2023-07-31T01:24:17;97690.75;;;18.54;73.46
5609;BME280;2826;51.354;9.588;2023-07-31T01:26:53;97679.03;;;18.59;73.23
5609;BME280;2826;51.354;9.588;2023-07-31T01:29:26;97677.13;;;18.61;73.26
5609;BME280;2826;51.354;9.588;2023-07-31T01:31:56;97676.56;;;18.57;73.49
5609;BME280;2826;51.354;9.588;2023-07-31T01:34:26;97667.19;;;18.64;72.88
5609;BME280;2826;51.354;9.588;2023-07-31T01:36:55;97675.69;;;18.68;72.55
5609;BME280;2826;51.354;9.588;2023-07-31T01:39:22;97675.19;;;18.63;72.82
5609;BME280;2826;51.354;9.588;2023-07-31T01:41:50;97671.63;;;18.64;72.35
5609;BME280;2826;51.354;9.588;2023-07-31T01:44:17;97671.75;;;18.62;72.30
5609;BME280;2826;51.354;9.588;2023-07-31T01:46:44;97660.03;;;18.66;72.40
5609;BME280;2826;51.354;9.588;2023-07-31T01:49:10;97654.69;;;18.68;72.41
5609;BME280;2826;51.354;9.588;2023-07-31T01:51:37;97660.25;;;18.75;72.19
5609;BME280;2826;51.354;9.588;2023-07-31T01:54:03;97660.38;;;18.73;72.19
5609;BME280;2826;51.354;9.588;2023-07-31T01:56:29;97657.03;;;18.71;72.16
5609;BME280;2826;51.354;9.588;2023-07-31T01:58:57;97656.91;;;18.73;72.23
5609;BME280;2826;51.354;9.588;2023-07-31T02:01:24;97655.38;;;18.70;72.44
5609;BME280;2826;51.354;9.588;2023-07-31T02:03:50;97656.06;;;18.72;72.58
5609;BME280;2826;51.354;9.588;2023-07-31T02:06:17;97651.31;;;18.66;72.61
5609;BME280;2826;51.354;9.588;2023-07-31T02:08:44;97644.75;;;18.72;73.09
5609;BME280;2826;51.354;9.588;2023-07-31T02:11:12;97643.09;;;18.71;72.95
5609;BME280;2826;51.354;9.588;2023-07-31T02:13:38;97643.09;;;18.71;73.09
5609;BME280;2826;51.354;9.588;2023-07-31T02:16:06;97638.06;;;18.67;73.35
5609;BME280;2826;51.354;9.588;2023-07-31T02:18:33;97641.41;;;18.70;73.34
5609;BME280;2826;51.354;9.588;2023-07-31T02:21:01;97643.25;;;18.79;72.93
5609;BME280;2826;51.354;9.588;2023-07-31T02:23:27;97638.00;;;18.79;72.63
5609;BME280;2826;51.354;9.588;2023-07-31T02:25:54;97634.56;;;18.78;73.17
5609;BME280;2826;51.354;9.588;2023-07-31T02:28:21;97636.34;;;18.78;73.13
5609;BME280;2826;51.354;9.588;2023-07-31T02:30:47;97632.06;;;18.77;72.96
5609;BME280;2826;51.354;9.588;2023-07-31T02:33:17;97638.28;;;18.76;73.63
5609;BME280;2826;51.354;9.588;2023-07-31T02:35:45;97618.63;;;18.59;74.24
5609;BME280;2826;51.354;9.588;2023-07-31T02:38:12;97651.41;;;18.76;74.60
5609;BME280;2826;51.354;9.588;2023-07-31T02:40:40;97614.47;;;18.56;75.03
5609;BME280;2826;51.354;9.588;2023-07-31T02:43:07;97638.91;;;18.68;75.35
5609;BME280;2826;51.354;9.588;2023-07-31T02:45:34;97636.41;;;18.66;75.47
5609;BME280;2826;51.354;9.588;2023-07-31T02:48:00;97638.44;;;18.63;75.83
5609;BME280;2826;51.354;9.588;2023-07-31T02:50:28;97639.16;;;18.65;76.08
5609;BME280;2826;51.354;9.588;2023-07-31T02:52:55;97641.22;;;18.61;76.63
5609;BME280;2826;51.354;9.588;2023-07-31T02:55:22;97642.41;;;18.57;77.08
5609;BME280;2826;51.354;9.588;2023-07-31T02:57:48;97640.59;;;18.58;76.99
5609;BME280;2826;51.354;9.588;2023-07-31T03:00:17;97647.91;;;18.54;77.48
5609;BME280;2826;51.354;9.588;2023-07-31T03:02:44;97643.03;;;18.49;77.85
5609;BME280;2826;51.354;9.588;2023-07-31T03:05:10;97647.91;;;18.54;77.43
5609;BME280;2826;51.354;9.588;2023-07-31T03:07:38;97641.34;;;18.60;77.21
5609;BME280;2826;51.354;9.588;2023-07-31T03:10:06;97633.56;;;18.58;77.35
5609;BME280;2826;51.354;9.588;2023-07-31T03:12:33;97639.06;;;18.55;76.62
5609;BME280;2826;51.354;9.588;2023-07-31T03:15:00;97646.13;;;18.54;76.89
5609;BME280;2826;51.354;9.588;2023-07-31T03:17:26;97641.34;;;18.60;76.70
5609;BME280;2826;51.354;9.588;2023-07-31T03:19:53;97629.53;;;18.54;77.39
5609;BME280;2826;51.354;9.588;2023-07-31T03:22:20;97634.06;;;18.52;76.67
5609;BME280;2826;51.354;9.588;2023-07-31T03:24:48;97637.28;;;18.56;77.12
5609;BME280;2826;51.354;9.588;2023-07-31T03:27:14;97630.94;;;18.58;76.81
5609;BME280;2826;51.354;9.588;2023-07-31T03:29:42;97626.19;;;18.52;77.09
5609;BME280;2826;51.354;9.588;2023-07-31T03:32:08;97632.63;;;18.59;76.01
5609;BME280;2826;51.354;9.588;2023-07-31T03:34:35;97616.63;;;18.62;76.23
5609;BME280;2826;51.354;9.588;2023-07-31T03:37:05;97620.06;;;18.63;76.05
5609;BME280;2826;51.354;9.588;2023-07-31T03:39:32;97615.06;;;18.60;76.29
5609;BME280;2826;51.354;9.588;2023-07-31T03:42:00;97609.31;;;18.66;75.67
5609;BME280;2826;51.354;9.588;2023-07-31T03:44:28;97606.56;;;18.67;75.81
5609;BME280;2826;51.354;9.588;2023-07-31T03:46:55;97606.69;;;18.66;75.77
5609;BME280;2826;51.354;9.588;2023-07-31T03:49:21;97611.59;;;18.59;75.87
5609;BME280;2826;51.354;9.588;2023-07-31T03:51:48;97617.41;;;18.74;75.39
5609;BME280;2826;51.354;9.588;2023-07-31T03:54:14;97616.81;;;18.71;75.31
5609;BME280;2826;51.354;9.588;2023-07-31T03:56:41;97618.25;;;18.75;75.18
5609;BME280;2826;51.354;9.588;2023-07-31T03:59:09;97612.03;;;18.76;74.73
5609;BME280;2826;51.354;9.588;2023-07-31T04:01:36;97620.59;;;18.78;74.81
5609;BME280;2826;51.354;9.588;2023-07-31T04:04:03;97612.84;;;18.76;75.67
5609;BME280;2826;51.354;9.588;2023-07-31T04:06:30;97611.28;;;18.74;75.11
5609;BME280;2826;51.354;9.588;2023-07-31T04:08:57;97616.31;;;18.77;74.46
5609;BME280;2826;51.354;9.588;2023-07-31T04:11:23;97617.84;;;18.79;74.53
5609;BME280;2826;51.354;9.588;2023-07-31T04:13:50;97620.47;;;18.79;74.32
5609;BME280;2826;51.354;9.588;2023-07-31T04:16:18;97622.84;;;18.83;74.31
5609;BME280;2826;51.354;9.588;2023-07-31T04:18:44;97615.13;;;18.70;74.33
5609;BME280;2826;51.354;9.588;2023-07-31T04:21:11;97623.66;;;18.83;73.57
5609;BME280;2826;51.354;9.588;2023-07-31T04:23:38;97589.41;;;18.63;73.54
5609;BME280;2826;51.354;9.588;2023-07-31T04:26:04;97622.34;;;18.89;73.32
5609;BME280;2826;51.354;9.588;2023-07-31T04:28:31;97623.06;;;18.91;73.29
5609;BME280;2826;51.354;9.588;2023-07-31T04:30:57;97618.38;;;18.94;72.42
5609;BME280;2826;51.354;9.588;2023-07-31T04:33:25;97621.84;;;18.95;72.57
5609;BME280;2826;51.354;9.588;2023-07-31T04:35:53;97621.25;;;18.91;72.43
5609;BME280;2826;51.354;9.588;2023-07-31T04:38:20;97621.97;;;18.93;71.75
5609;BME280;2826;51.354;9.588;2023-07-31T04:40:47;97635.59;;;18.87;71.97
5609;BME280;2826;51.354;9.588;2023-07-31T04:43:14;97626.50;;;18.91;71.48
5609;BME280;2826;51.354;9.588;2023-07-31T04:45:42;97623.94;;;19.01;70.94
5609;BME280;2826;51.354;9.588;2023-07-31T04:48:09;97632.47;;;18.93;71.67
5609;BME280;2826;51.354;9.588;2023-07-31T04:50:37;97646.63;;;19.02;71.30
5609;BME280;2826;51.354;9.588;2023-07-31T04:53:03;97630.03;;;19.02;71.37
5609;BME280;2826;51.354;9.588;2023-07-31T04:55:30;97629.31;;;19.00;71.24
5609;BME280;2826;51.354;9.588;2023-07-31T04:57:58;97633.03;;;18.97;71.01
5609;BME280;2826;51.354;9.588;2023-07-31T05:00:25;97630.53;;;18.96;70.83
5609;BME280;2826;51.354;9.588;2023-07-31T05:02:51;97626.44;;;19.03;70.90
5609;BME280;2826;51.354;9.588;2023-07-31T05:05:18;97622.28;;;19.00;71.20
5609;BME280;2826;51.354;9.588;2023-07-31T05:07:46;97622.28;;;19.00;70.47
5609;BME280;2826;51.354;9.588;2023-07-31T05:10:12;97633.75;;;18.99;70.58
5609;BME280;2826;51.354;9.588;2023-07-31T05:12:39;97619.66;;;19.00;70.38
5609;BME280;2826;51.354;9.588;2023-07-31T05:15:06;97619.91;;;18.97;70.25
5609;BME280;2826;51.354;9.588;2023-07-31T05:17:33;97621.84;;;18.95;70.73
5609;BME280;2826;51.354;9.588;2023-07-31T05:20:00;97629.97;;;18.92;70.50
5609;BME280;2826;51.354;9.588;2023-07-31T05:22:26;97623.50;;;18.96;70.41
5609;BME280;2826;51.354;9.588;2023-07-31T05:24:54;97623.75;;;18.93;70.58
5609;BME280;2826;51.354;9.588;2023-07-31T05:27:21;97623.25;;;18.99;70.42
5609;BME280;2826;51.354;9.588;2023-07-31T05:29:47;97617.72;;;19.02;69.90
5609;BME280;2826;51.354;9.588;2023-07-31T05:32:14;97623.50;;;18.96;70.09
5609;BME280;2826;51.354;9.588;2023-07-31T05:34:40;97624.88;;;19.12;69.81
5609;BME280;2826;51.354;9.588;2023-07-31T05:37:07;97635.66;;;19.09;69.78
5609;BME280;2826;51.354;9.588;2023-07-31T05:39:34;97624.16;;;19.10;70.21
5609;BME280;2826;51.354;9.588;2023-07-31T05:42:02;97633.72;;;19.11;69.99
5609;BME280;2826;51.354;9.588;2023-07-31T05:44:28;97626.22;;;19.06;70.14
5609;BME280;2826;51.354;9.588;2023-07-31T05:46:55;97579.63;;;18.87;69.19
5609;BME280;2826;51.354;9.588;2023-07-31T05:49:22;97608.97;;;19.13;69.67
5609;BME280;2826;51.354;9.588;2023-07-31T05:51:49;97619.44;;;19.25;70.09
5609;BME280;2826;51.354;9.588;2023-07-31T05:54:15;97612.63;;;19.22;70.61
5609;BME280;2826;51.354;9.588;2023-07-31T05:56:41;97622.50;;;19.30;70.46
5609;BME280;2826;51.354;9.588;2023-07-31T05:59:09;97620.69;;;19.30;70.41
5609;BME280;2826;51.354;9.588;2023-07-31T06:01:36;97630.25;;;19.31;70.94
5609;BME280;2826;51.354;9.588;2023-07-31T06:04:03;97620.00;;;19.28;70.63
5609;BME280;2826;51.354;9.588;2023-07-31T06:06:29;97625.94;;;19.30;71.00
5609;BME280;2826;51.354;9.588;2023-07-31T06:08:56;97624.88;;;19.33;70.59
5609;BME280;2826;51.354;9.588;2023-07-31T06:11:23;97620.88;;;19.39;70.51
5609;BME280;2826;51.354;9.588;2023-07-31T06:13:49;97624.47;;;19.38;70.41
5609;BME280;2826;51.354;9.588;2023-07-31T06:16:17;97623.91;;;19.34;70.39
5609;BME280;2826;51.354;9.588;2023-07-31T06:18:44;97619.63;;;19.33;70.45
5609;BME280;2826;51.354;9.588;2023-07-31T06:21:10;97625.81;;;19.32;71.20
5609;BME280;2826;51.354;9.588;2023-07-31T06:26:11;97633.81;;;19.30;71.82
5609;BME280;2826;51.354;9.588;2023-07-31T06:28:37;97640.56;;;19.23;74.25
5609;BME280;2826;51.354;9.588;2023-07-31T06:31:04;97646.47;;;19.15;75.39
5609;BME280;2826;51.354;9.588;2023-07-31T06:33:32;97642.34;;;19.01;76.52
5609;BME280;2826;51.354;9.588;2023-07-31T06:35:58;97637.53;;;18.85;77.57
5609;BME280;2826;51.354;9.588;2023-07-31T06:38:26;97627.91;;;18.74;78.30
5609;BME280;2826;51.354;9.588;2023-07-31T06:40:53;97625.78;;;18.68;79.13
5609;BME280;2826;51.354;9.588;2023-07-31T06:43:20;97621.75;;;18.64;79.96
5609;BME280;2826;51.354;9.588;2023-07-31T06:45:46;97617.75;;;18.70;80.46
5609;BME280;2826;51.354;9.588;2023-07-31T06:48:15;97616.81;;;18.71;80.36
5609;BME280;2826;51.354;9.588;2023-07-31T06:50:43;97625.09;;;18.87;79.96
5609;BME280;2826;51.354;9.588;2023-07-31T06:53:10;97615.88;;;18.93;80.39
5609;BME280;2826;51.354;9.588;2023-07-31T06:55:37;97618.69;;;19.01;79.85
5609;BME280;2826;51.354;9.588;2023-07-31T06:58:03;97624.31;;;18.97;80.51
5609;BME280;2826;51.354;9.588;2023-07-31T07:00:30;97624.19;;;18.98;80.87
5609;BME280;2826;51.354;9.588;2023-07-31T07:02:57;97615.88;;;18.93;81.47
5609;BME280;2826;51.354;9.588;2023-07-31T07:05:24;97622.09;;;18.92;81.62
5609;BME280;2826;51.354;9.588;2023-07-31T07:07:52;97613.13;;;18.94;82.03
5609;BME280;2826;51.354;9.588;2023-07-31T07:10:19;97609.44;;;18.86;83.16
5609;BME280;2826;51.354;9.588;2023-07-31T07:12:45;97620.66;;;18.88;83.98
5609;BME280;2826;51.354;9.588;2023-07-31T07:15:12;97617.19;;;18.87;84.31
5609;BME280;2826;51.354;9.588;2023-07-31T07:17:39;97609.06;;;18.69;85.73
5609;BME280;2826;51.354;9.588;2023-07-31T07:20:07;97610.16;;;18.66;85.92
5609;BME280;2826;51.354;9.588;2023-07-31T07:22:34;97607.91;;;18.62;85.92
5609;BME280;2826;51.354;9.588;2023-07-31T07:25:02;97606.47;;;18.58;87.08
5609;BME280;2826;51.354;9.588;2023-07-31T07:27:29;97613.47;;;18.68;86.48
5609;BME280;2826;51.354;9.588;2023-07-31T07:29:56;97580.81;;;18.61;86.04
5609;BME280;2826;51.354;9.588;2023-07-31T07:32:22;97601.88;;;18.71;86.40
5609;BME280;2826;51.354;9.588;2023-07-31T07:34:49;97598.03;;;18.75;85.43
5609;BME280;2826;51.354;9.588;2023-07-31T07:37:16;97600.44;;;18.78;85.70
5609;BME280;2826;51.354;9.588;2023-07-31T07:39:43;97599.00;;;18.74;85.22
5609;BME280;2826;51.354;9.588;2023-07-31T07:42:11;97598.25;;;18.84;85.09
5609;BME280;2826;51.354;9.588;2023-07-31T07:44:37;97596.91;;;18.89;85.35
5609;BME280;2826;51.354;9.588;2023-07-31T07:47:04;97581.16;;;18.89;85.27
5609;BME280;2826;51.354;9.588;2023-07-31T07:49:31;97600.06;;;19.04;84.51
5609;BME280;2826;51.354;9.588;2023-07-31T07:51:57;97589.44;;;19.06;84.83
5609;BME280;2826;51.354;9.588;2023-07-31T07:54:24;97569.09;;;18.87;84.79
5609;BME280;2826;51.354;9.588;2023-07-31T07:57:15;97599.16;;;19.37;83.30
5609;BME280;2826;51.354;9.588;2023-07-31T07:59:41;97586.66;;;19.60;82.05
5609;BME280;2826;51.354;9.588;2023-07-31T08:02:08;97582.28;;;19.80;80.40
5609;BME280;2826;51.354;9.588;2023-07-31T08:04:34;97575.66;;;19.96;79.61
5609;BME280;2826;51.354;9.588;2023-07-31T08:07:01;97572.97;;;20.07;79.24
5609;BME280;2826;51.354;9.588;2023-07-31T08:09:28;97563.41;;;20.16;77.61
5609;BME280;2826;51.354;9.588;2023-07-31T08:11:55;97566.06;;;20.36;77.25
5609;BME280;2826;51.354;9.588;2023-07-31T08:14:24;97555.53;;;20.56;75.86
5609;BME280;2826;51.354;9.588;2023-07-31T08:16:51;97566.88;;;20.76;75.26
5609;BME280;2826;51.354;9.588;2023-07-31T08:19:18;97560.91;;;20.94;73.96
5609;BME280;2826;51.354;9.588;2023-07-31T08:21:45;97565.03;;;21.06;73.31
5609;BME280;2826;51.354;9.588;2023-07-31T08:24:11;97563.94;;;20.99;72.39
5609;BME280;2826;51.354;9.588;2023-07-31T08:26:38;97562.41;;;20.86;72.22
5609;BME280;2826;51.354;9.588;2023-07-31T08:29:05;97558.00;;;20.87;72.93
5609;BME280;2826;51.354;9.588;2023-07-31T08:31:33;97564.09;;;20.78;72.90
5609;BME280;2826;51.354;9.588;2023-07-31T08:34:00;97555.22;;;20.69;73.14
5609;BME280;2826;51.354;9.588;2023-07-31T08:36:27;97557.88;;;20.59;72.82
5609;BME280;2826;51.354;9.588;2023-07-31T08:38:53;97553.28;;;20.61;73.01
5609;BME280;2826;51.354;9.588;2023-07-31T08:41:20;97576.59;;;20.56;73.93
5609;BME280;2826;51.354;9.588;2023-07-31T08:43:48;97565.38;;;20.44;73.85
5609;BME280;2826;51.354;9.588;2023-07-31T08:46:15;97559.25;;;20.43;74.50
5609;BME280;2826;51.354;9.588;2023-07-31T08:48:44;97565.66;;;20.50;75.78
5609;BME280;2826;51.354;9.588;2023-07-31T08:51:11;97564.66;;;20.42;76.00
5609;BME280;2826;51.354;9.588;2023-07-31T08:53:37;97572.72;;;20.30;78.29
5609;BME280;2826;51.354;9.588;2023-07-31T08:56:05;97572.41;;;20.14;78.55
5609;BME280;2826;51.354;9.588;2023-07-31T08:58:33;97574.75;;;20.07;78.31
5609;BME280;2826;51.354;9.588;2023-07-31T09:01:03;97571.28;;;20.06;78.48
5609;BME280;2826;51.354;9.588;2023-07-31T09:03:33;97576.25;;;20.00;79.69
5609;BME280;2826;51.354;9.588;2023-07-31T09:06:02;97572.06;;;19.97;79.01
5609;BME280;2826;51.354;9.588;2023-07-31T09:08:31;97569.91;;;20.02;78.89
5609;BME280;2826;51.354;9.588;2023-07-31T09:10:59;97563.38;;;20.06;79.36
5609;BME280;2826;51.354;9.588;2023-07-31T09:13:27;97555.50;;;20.06;78.77
5609;BME280;2826;51.354;9.588;2023-07-31T09:15:54;97556.47;;;20.15;78.73
5609;BME280;2826;51.354;9.588;2023-07-31T09:18:21;97575.16;;;20.12;78.63
5609;BME280;2826;51.354;9.588;2023-07-31T09:21:01;97575.59;;;20.07;78.88
5609;BME280;2826;51.354;9.588;2023-07-31T09:23:40;97562.16;;;20.01;79.83
5609;BME280;2826;51.354;9.588;2023-07-31T09:26:07;97565.34;;;20.04;80.13
5609;BME280;2826;51.354;9.588;2023-07-31T09:28:34;97563.13;;;20.09;80.43
5609;BME280;2826;51.354;9.588;2023-07-31T09:31:01;97548.47;;;20.17;80.79
5609;BME280;2826;51.354;9.588;2023-07-31T09:33:27;97537.78;;;20.18;79.87
5609;BME280;2826;51.354;9.588;2023-07-31T09:35:54;97537.63;;;20.20;79.48
5609;BME280;2826;51.354;9.588;2023-07-31T09:38:23;97536.41;;;20.14;79.61
5609;BME280;2826;51.354;9.588;2023-07-31T09:40:50;97530.84;;;20.07;79.08
5609;BME280;2826;51.354;9.588;2023-07-31T09:43:18;97524.22;;;20.03;79.02
5609;BME280;2826;51.354;9.588;2023-07-31T09:45:45;97530.84;;;20.07;79.78
5609;BME280;2826;51.354;9.588;2023-07-31T09:48:13;97532.22;;;20.02;79.76
5609;BME280;2826;51.354;9.588;2023-07-31T09:50:43;97540.50;;;19.97;80.67
5609;BME280;2826;51.354;9.588;2023-07-31T09:53:10;97534.22;;;19.78;82.35
5609;BME280;2826;51.354;9.588;2023-07-31T09:55:40;97544.94;;;19.96;83.39
5609;BME280;2826;51.354;9.588;2023-07-31T09:58:09;97534.03;;;20.11;84.11
5609;BME280;2826;51.354;9.588;2023-07-31T10:00:37;97536.53;;;20.32;83.11
5609;BME280;2826;51.354;9.588;2023-07-31T10:03:05;97530.44;;;20.42;83.71
5609;BME280;2826;51.354;9.588;2023-07-31T10:05:34;97529.19;;;20.46;82.47
5609;BME280;2826;51.354;9.588;2023-07-31T10:08:03;97527.78;;;20.42;82.95
5609;BME280;2826;51.354;9.588;2023-07-31T10:10:31;97527.53;;;20.35;83.05
5609;BME280;2826;51.354;9.588;2023-07-31T10:12:59;97533.22;;;20.30;82.92
5609;BME280;2826;51.354;9.588;2023-07-31T10:15:27;97517.97;;;20.24;83.64
5609;BME280;2826;51.354;9.588;2023-07-31T10:17:55;97509.53;;;20.20;84.19
5609;BME280;2826;51.354;9.588;2023-07-31T10:20:22;97515.88;;;20.37;84.28
5609;BME280;2826;51.354;9.588;2023-07-31T10:22:51;97499.53;;;20.54;83.98
5609;BME280;2826;51.354;9.588;2023-07-31T10:25:19;97522.34;;;20.83;82.96
5609;BME280;2826;51.354;9.588;2023-07-31T10:27:47;97512.47;;;21.05;82.91
5609;BME280;2826;51.354;9.588;2023-07-31T10:30:17;97508.78;;;21.25;80.54
5609;BME280;2826;51.354;9.588;2023-07-31T10:32:45;97502.94;;;21.32;79.55
5609;BME280;2826;51.354;9.588;2023-07-31T10:35:14;97500.81;;;21.35;78.24
5609;BME280;2826;51.354;9.588;2023-07-31T10:37:43;97511.19;;;21.19;78.36
5609;BME280;2826;51.354;9.588;2023-07-31T10:40:11;97504.56;;;21.05;77.94
5609;BME280;2826;51.354;9.588;2023-07-31T10:42:45;97500.44;;;20.92;78.66
5609;BME280;2826;51.354;9.588;2023-07-31T10:45:15;97501.28;;;20.73;79.58
5609;BME280;2826;51.354;9.588;2023-07-31T10:47:58;97498.53;;;20.65;78.69
5609;BME280;2826;51.354;9.588;2023-07-31T10:50:26;97505.34;;;20.57;79.07
5609;BME280;2826;51.354;9.588;2023-07-31T10:52:54;97479.47;;;20.43;78.77
5609;BME280;2826;51.354;9.588;2023-07-31T10:55:26;97482.63;;;20.46;79.15
5609;BME280;2826;51.354;9.588;2023-07-31T10:57:53;97497.72;;;20.44;79.25
5609;BME280;2826;51.354;9.588;2023-07-31T11:00:25;97487.91;;;20.46;78.49
5609;BME280;2826;51.354;9.588;2023-07-31T11:02:59;97487.97;;;20.65;78.72
5609;BME280;2826;51.354;9.588;2023-07-31T11:05:50;97484.81;;;20.61;77.93
5609;BME280;2826;51.354;9.588;2023-07-31T11:08:21;97479.81;;;20.68;77.92
5609;BME280;2826;51.354;9.588;2023-07-31T11:10:50;97479.00;;;20.57;77.56
5609;BME280;2826;51.354;9.588;2023-07-31T11:13:17;97466.78;;;20.66;77.21
5609;BME280;2826;51.354;9.588;2023-07-31T11:15:45;97472.03;;;20.66;77.68
5609;BME280;2826;51.354;9.588;2023-07-31T11:18:12;97471.91;;;20.87;78.32
5609;BME280;2826;51.354;9.588;2023-07-31T11:20:39;97464.66;;;20.80;75.52
5609;BME280;2826;51.354;9.588;2023-07-31T11:23:08;97471.06;;;20.87;76.31
5609;BME280;2826;51.354;9.588;2023-07-31T11:25:36;97455.94;;;20.79;76.12
5609;BME280;2826;51.354;9.588;2023-07-31T11:28:05;97464.81;;;20.88;75.25
5609;BME280;2826;51.354;9.588;2023-07-31T11:30:32;97470.38;;;20.75;75.54
5609;BME280;2826;51.354;9.588;2023-07-31T11:33:01;97462.72;;;20.92;75.70
5609;BME280;2826;51.354;9.588;2023-07-31T11:35:31;97467.69;;;20.95;75.79
5609;BME280;2826;51.354;9.588;2023-07-31T11:37:58;97460.50;;;20.77;74.08
5609;BME280;2826;51.354;9.588;2023-07-31T11:40:25;97462.75;;;20.62;73.50
5609;BME280;2826;51.354;9.588;2023-07-31T11:42:56;97440.63;;;20.45;73.38
5609;BME280;2826;51.354;9.588;2023-07-31T11:45:27;97459.50;;;20.40;74.52
5609;BME280;2826;51.354;9.588;2023-07-31T11:47:55;97453.94;;;20.43;74.12
5609;BME280;2826;51.354;9.588;2023-07-31T11:50:24;97454.59;;;20.65;74.02
5609;BME280;2826;51.354;9.588;2023-07-31T11:52:59;97445.25;;;20.81;72.79
5609;BME280;2826;51.354;9.588;2023-07-31T11:55:26;97442.75;;;20.89;72.32
5609;BME280;2826;51.354;9.588;2023-07-31T11:57:56;97444.28;;;20.92;71.86
5609;BME280;2826;51.354;9.588;2023-07-31T12:00:24;97451.34;;;20.81;71.43
5609;BME280;2826;51.354;9.588;2023-07-31T12:02:51;97449.28;;;20.85;71.16
5609;BME280;2826;51.354;9.588;2023-07-31T12:05:19;97449.69;;;20.80;70.88
5609;BME280;2826;51.354;9.588;2023-07-31T12:07:50;97453.59;;;20.76;70.46
5609;BME280;2826;51.354;9.588;2023-07-31T12:10:27;97451.78;;;20.76;70.41
5609;BME280;2826;51.354;9.588;2023-07-31T12:12:58;97442.06;;;20.77;70.44
5609;BME280;2826;51.354;9.588;2023-07-31T12:15:33;97451.09;;;20.74;69.67
5609;BME280;2826;51.354;9.588;2023-07-31T12:18:04;97441.13;;;20.68;69.35
5609;BME280;2826;51.354;9.588;2023-07-31T12:20:32;97442.47;;;20.82;70.04
5609;BME280;2826;51.354;9.588;2023-07-31T12:23:00;97441.50;;;20.83;69.42
5609;BME280;2826;51.354;9.588;2023-07-31T12:25:33;97435.00;;;20.87;69.93
5609;BME280;2826;51.354;9.588;2023-07-31T12:28:06;97440.28;;;20.87;69.88
5609;BME280;2826;51.354;9.588;2023-07-31T12:30:37;97441.34;;;20.95;68.61
5609;BME280;2826;51.354;9.588;2023-07-31T12:33:05;97436.31;;;21.01;70.46
5609;BME280;2826;51.354;9.588;2023-07-31T12:35:37;97449.63;;;21.00;70.92
5609;BME280;2826;51.354;9.588;2023-07-31T12:38:05;97436.66;;;20.88;71.70
5609;BME280;2826;51.354;9.588;2023-07-31T12:40:32;97444.56;;;20.88;73.16
5609;BME280;2826;51.354;9.588;2023-07-31T12:43:01;97447.22;;;20.69;74.05
5609;BME280;2826;51.354;9.588;2023-07-31T12:45:28;97446.81;;;20.63;76.56
5609;BME280;2826;51.354;9.588;2023-07-31T12:47:54;97454.47;;;20.57;76.82
5609;BME280;2826;51.354;9.588;2023-07-31T12:50:21;97436.91;;;20.37;78.02
5609;BME280;2826;51.354;9.588;2023-07-31T12:52:49;97436.63;;;20.31;78.51
5609;BME280;2826;51.354;9.588;2023-07-31T12:55:17;97434.56;;;20.24;78.88
5609;BME280;2826;51.354;9.588;2023-07-31T12:57:44;97428.19;;;20.27;79.24
5609;BME280;2826;51.354;9.588;2023-07-31T13:00:12;97419.44;;;20.36;78.83
5609;BME280;2826;51.354;9.588;2023-07-31T13:02:39;97428.16;;;20.47;78.35
5609;BME280;2826;51.354;9.588;2023-07-31T13:05:06;97432.97;;;20.61;78.11
5609;BME280;2826;51.354;9.588;2023-07-31T13:07:33;97428.50;;;20.72;77.38
5609;BME280;2826;51.354;9.588;2023-07-31T13:09:59;97427.78;;;20.80;77.25
5609;BME280;2826;51.354;9.588;2023-07-31T13:12:27;97423.47;;;20.79;76.32
5609;BME280;2826;51.354;9.588;2023-07-31T13:14:54;97421.38;;;20.82;76.37
5609;BME280;2826;51.354;9.588;2023-07-31T13:17:21;97418.34;;;20.87;76.55
5609;BME280;2826;51.354;9.588;2023-07-31T13:19:48;97426.25;;;20.87;75.47
5609;BME280;2826;51.354;9.588;2023-07-31T13:22:14;97425.56;;;20.85;76.36
5609;BME280;2826;51.354;9.588;2023-07-31T13:24:41;97433.09;;;20.70;75.89
5609;BME280;2826;51.354;9.588;2023-07-31T13:27:08;97418.22;;;20.79;75.76
5609;BME280;2826;51.354;9.588;2023-07-31T13:29:36;97414.31;;;20.83;75.08